Terminal Aerodrome Forecast
Issued by NWS Portland, OR

Home | Current Version | Previous Version | Text Only | Print | Product List | Glossary On
Versions: 1 2 3 4 5 6 7 8 9 10 11 12 13 14 15 16 17 18 19 20 21 22 23
000
FTUS46 KPQR 110552
TAFAST
TAF
KAST 110552Z 1106/1206 23012KT P6SM -RA SCT025 BKN040
     FM111400 23011G19KT P6SM -SHRA SCT025 OVC040
     FM111900 23014G22KT P6SM -SHRA BKN025 OVC040=

USA.gov is the U.S. government's official web portal to all federal, state and local government web resources and services.